sensor_id;sensor_type;location;lat;lon;timestamp;temperature;humidity
30063;DHT22;16889;67.864;24.990;2024-02-21T00:00:19;-7.40;99.90
30063;DHT22;16889;67.864;24.990;2024-02-21T00:05:05;-7.60;99.90
30063;DHT22;16889;67.864;24.990;2024-02-21T00:09:51;-7.60;99.90
30063;DHT22;16889;67.864;24.990;2024-02-21T00:14:37;-7.50;99.90
30063;DHT22;16889;67.864;24.990;2024-02-21T00:19:23;-7.60;99.90
30063;DHT22;16889;67.864;24.990;2024-02-21T00:24:08;-7.50;99.90
30063;DHT22;16889;67.864;24.990;2024-02-21T00:28:54;-7.40;99.90
30063;DHT22;16889;67.864;24.990;2024-02-21T00:33:41;-7.50;99.90
30063;DHT22;16889;67.864;24.990;2024-02-21T00:38:26;-7.40;99.90
30063;DHT22;16889;67.864;24.990;2024-02-21T00:43:12;-7.40;99.90
30063;DHT22;16889;67.864;24.990;2024-02-21T00:47:58;-7.50;99.90
30063;DHT22;16889;67.864;24.990;2024-02-21T00:52:44;-7.50;99.90
30063;DHT22;16889;67.864;24.990;2024-02-21T00:57:30;-7.60;99.90
30063;DHT22;16889;67.864;24.990;2024-02-21T01:02:15;-7.60;99.90
30063;DHT22;16889;67.864;24.990;2024-02-21T01:07:01;-7.40;99.90
30063;DHT22;16889;67.864;24.990;2024-02-21T01:11:47;-7.50;99.90
30063;DHT22;16889;67.864;24.990;2024-02-21T01:16:33;-7.60;99.90
30063;DHT22;16889;67.864;24.990;2024-02-21T01:21:18;-7.50;99.90
30063;DHT22;16889;67.864;24.990;2024-02-21T01:26:04;-7.40;99.90
30063;DHT22;16889;67.864;24.990;2024-02-21T01:30:50;-7.30;99.90
30063;DHT22;16889;67.864;24.990;2024-02-21T01:35:36;-7.30;99.90
30063;DHT22;16889;67.864;24.990;2024-02-21T01:40:22;-7.40;99.90
30063;DHT22;16889;67.864;24.990;2024-02-21T01:45:08;-7.40;99.90
30063;DHT22;16889;67.864;24.990;2024-02-21T01:49:54;-7.30;99.90
30063;DHT22;16889;67.864;24.990;2024-02-21T01:54:40;-7.30;99.90
30063;DHT22;16889;67.864;24.990;2024-02-21T01:59:26;-7.50;99.90
30063;DHT22;16889;67.864;24.990;2024-02-21T02:04:12;-7.50;99.90
30063;DHT22;16889;67.864;24.990;2024-02-21T02:08:58;-7.50;99.90
30063;DHT22;16889;67.864;24.990;2024-02-21T02:13:44;-7.50;99.90
30063;DHT22;16889;67.864;24.990;2024-02-21T02:18:30;-7.50;99.90
30063;DHT22;16889;67.864;24.990;2024-02-21T02:23:25;-7.40;99.90
30063;DHT22;16889;67.864;24.990;2024-02-21T02:28:11;-7.50;99.90
30063;DHT22;16889;67.864;24.990;2024-02-21T02:32:57;-7.50;99.90
30063;DHT22;16889;67.864;24.990;2024-02-21T02:37:49;-7.50;99.90
30063;DHT22;16889;67.864;24.990;2024-02-21T02:42:35;-7.50;99.90
30063;DHT22;16889;67.864;24.990;2024-02-21T02:47:21;-7.50;99.90
30063;DHT22;16889;67.864;24.990;2024-02-21T02:52:06;-7.50;99.90
30063;DHT22;16889;67.864;24.990;2024-02-21T02:56:52;-7.50;99.90
30063;DHT22;16889;67.864;24.990;2024-02-21T03:01:38;-7.50;99.90
30063;DHT22;16889;67.864;24.990;2024-02-21T03:06:23;-7.60;99.90
30063;DHT22;16889;67.864;24.990;2024-02-21T03:11:09;-7.70;99.90
30063;DHT22;16889;67.864;24.990;2024-02-21T03:15:56;-7.70;99.90
30063;DHT22;16889;67.864;24.990;2024-02-21T03:20:42;-7.70;99.90
30063;DHT22;16889;67.864;24.990;2024-02-21T03:25:27;-7.60;99.90
30063;DHT22;16889;67.864;24.990;2024-02-21T03:30:13;-7.50;99.90
30063;DHT22;16889;67.864;24.990;2024-02-21T03:34:59;-7.40;99.90
30063;DHT22;16889;67.864;24.990;2024-02-21T03:39:45;-7.40;99.90
30063;DHT22;16889;67.864;24.990;2024-02-21T03:44:31;-7.40;99.90
30063;DHT22;16889;67.864;24.990;2024-02-21T03:49:17;-7.40;99.90
30063;DHT22;16889;67.864;24.990;2024-02-21T03:54:03;-7.50;99.90
30063;DHT22;16889;67.864;24.990;2024-02-21T03:58:49;-7.60;99.90
30063;DHT22;16889;67.864;24.990;2024-02-21T04:03:35;-7.50;99.90
30063;DHT22;16889;67.864;24.990;2024-02-21T04:08:22;-7.50;99.90
30063;DHT22;16889;67.864;24.990;2024-02-21T04:13:07;-7.50;99.90
30063;DHT22;16889;67.864;24.990;2024-02-21T04:17:53;-7.40;99.90
30063;DHT22;16889;67.864;24.990;2024-02-21T04:22:39;-7.40;99.90
30063;DHT22;16889;67.864;24.990;2024-02-21T04:27:25;-7.40;99.90
30063;DHT22;16889;67.864;24.990;2024-02-21T04:32:11;-7.40;99.90
30063;DHT22;16889;67.864;24.990;2024-02-21T04:36:56;-7.40;99.90
30063;DHT22;16889;67.864;24.990;2024-02-21T04:41:42;-7.30;99.90
30063;DHT22;16889;67.864;24.990;2024-02-21T04:46:28;-7.40;99.90
30063;DHT22;16889;67.864;24.990;2024-02-21T04:51:13;-7.40;99.90
30063;DHT22;16889;67.864;24.990;2024-02-21T04:55:59;-7.40;99.90
30063;DHT22;16889;67.864;24.990;2024-02-21T05:00:45;-7.30;99.90
30063;DHT22;16889;67.864;24.990;2024-02-21T05:05:31;-7.30;99.90
30063;DHT22;16889;67.864;24.990;2024-02-21T05:10:17;-7.30;99.90
30063;DHT22;16889;67.864;24.990;2024-02-21T05:15:05;-7.20;99.90
30063;DHT22;16889;67.864;24.990;2024-02-21T05:19:51;-7.10;99.90
30063;DHT22;16889;67.864;24.990;2024-02-21T05:24:38;-7.10;99.90
30063;DHT22;16889;67.864;24.990;2024-02-21T05:29:25;-7.10;99.90
30063;DHT22;16889;67.864;24.990;2024-02-21T05:34:11;-7.10;99.90
30063;DHT22;16889;67.864;24.990;2024-02-21T05:38:56;-7.00;99.90
30063;DHT22;16889;67.864;24.990;2024-02-21T05:43:43;-7.00;99.90
30063;DHT22;16889;67.864;24.990;2024-02-21T05:48:28;-6.80;99.90
30063;DHT22;16889;67.864;24.990;2024-02-21T05:53:14;-6.80;99.90
30063;DHT22;16889;67.864;24.990;2024-02-21T05:58:00;-6.80;99.90
30063;DHT22;16889;67.864;24.990;2024-02-21T06:02:46;-6.80;99.90
30063;DHT22;16889;67.864;24.990;2024-02-21T06:07:31;-6.80;99.90
30063;DHT22;16889;67.864;24.990;2024-02-21T06:12:17;-6.80;99.90
30063;DHT22;16889;67.864;24.990;2024-02-21T06:17:03;-6.70;99.90
30063;DHT22;16889;67.864;24.990;2024-02-21T06:21:49;-6.80;99.90
30063;DHT22;16889;67.864;24.990;2024-02-21T06:26:34;-6.80;99.90
30063;DHT22;16889;67.864;24.990;2024-02-21T06:31:20;-6.80;99.90
30063;DHT22;16889;67.864;24.990;2024-02-21T06:36:06;-6.90;99.90
30063;DHT22;16889;67.864;24.990;2024-02-21T06:40:52;-6.90;99.90
30063;DHT22;16889;67.864;24.990;2024-02-21T06:45:39;-6.70;99.90
30063;DHT22;16889;67.864;24.990;2024-02-21T06:50:25;-6.80;99.90
30063;DHT22;16889;67.864;24.990;2024-02-21T06:55:11;-6.80;99.90
30063;DHT22;16889;67.864;24.990;2024-02-21T06:59:57;-6.80;99.90
30063;DHT22;16889;67.864;24.990;2024-02-21T07:04:43;-6.70;99.90
30063;DHT22;16889;67.864;24.990;2024-02-21T07:09:29;-6.70;99.90
30063;DHT22;16889;67.864;24.990;2024-02-21T07:14:18;-6.50;99.90
30063;DHT22;16889;67.864;24.990;2024-02-21T07:19:04;-6.60;99.90
30063;DHT22;16889;67.864;24.990;2024-02-21T07:23:49;-6.60;99.90
30063;DHT22;16889;67.864;24.990;2024-02-21T07:28:36;-6.60;99.90
30063;DHT22;16889;67.864;24.990;2024-02-21T07:33:22;-6.50;99.90
30063;DHT22;16889;67.864;24.990;2024-02-21T07:38:08;-6.40;99.90
30063;DHT22;16889;67.864;24.990;2024-02-21T07:42:57;-6.30;99.90
30063;DHT22;16889;67.864;24.990;2024-02-21T07:47:43;-6.20;99.90
30063;DHT22;16889;67.864;24.990;2024-02-21T07:52:29;-6.10;99.90
30063;DHT22;16889;67.864;24.990;2024-02-21T07:57:15;-6.10;99.90
30063;DHT22;16889;67.864;24.990;2024-02-21T08:02:00;-6.00;99.90
30063;DHT22;16889;67.864;24.990;2024-02-21T08:06:51;-6.00;99.90
30063;DHT22;16889;67.864;24.990;2024-02-21T08:11:37;-6.00;99.90
30063;DHT22;16889;67.864;24.990;2024-02-21T08:16:23;-5.90;99.90
30063;DHT22;16889;67.864;24.990;2024-02-21T08:21:09;-5.80;99.90
30063;DHT22;16889;67.864;24.990;2024-02-21T08:25:54;-5.60;99.90
30063;DHT22;16889;67.864;24.990;2024-02-21T08:30:40;-5.60;99.90
30063;DHT22;16889;67.864;24.990;2024-02-21T08:35:29;-5.50;99.90
30063;DHT22;16889;67.864;24.990;2024-02-21T08:40:15;-5.30;99.90
30063;DHT22;16889;67.864;24.990;2024-02-21T08:45:06;-5.20;99.90
30063;DHT22;16889;67.864;24.990;2024-02-21T08:49:52;-4.90;99.90
30063;DHT22;16889;67.864;24.990;2024-02-21T08:54:38;-4.60;99.90
30063;DHT22;16889;67.864;24.990;2024-02-21T08:59:24;-4.30;99.90
30063;DHT22;16889;67.864;24.990;2024-02-21T09:04:11;-4.20;99.90
30063;DHT22;16889;67.864;24.990;2024-02-21T09:08:57;-4.10;99.90
30063;DHT22;16889;67.864;24.990;2024-02-21T09:13:43;-4.00;99.90
30063;DHT22;16889;67.864;24.990;2024-02-21T09:18:29;-4.10;99.90
30063;DHT22;16889;67.864;24.990;2024-02-21T09:23:15;-3.90;99.90
30063;DHT22;16889;67.864;24.990;2024-02-21T09:28:01;-4.00;99.90
30063;DHT22;16889;67.864;24.990;2024-02-21T09:32:48;-3.90;99.90
30063;DHT22;16889;67.864;24.990;2024-02-21T09:37:34;-3.80;99.90
30063;DHT22;16889;67.864;24.990;2024-02-21T09:42:20;-3.90;99.90
30063;DHT22;16889;67.864;24.990;2024-02-21T09:47:09;-3.70;99.90
30063;DHT22;16889;67.864;24.990;2024-02-21T09:51:57;-3.80;99.90
30063;DHT22;16889;67.864;24.990;2024-02-21T09:56:46;-3.80;99.90
30063;DHT22;16889;67.864;24.990;2024-02-21T10:01:32;-3.70;99.90
30063;DHT22;16889;67.864;24.990;2024-02-21T10:06:18;-3.60;99.90
30063;DHT22;16889;67.864;24.990;2024-02-21T10:11:04;-3.60;99.90
30063;DHT22;16889;67.864;24.990;2024-02-21T10:16:00;-3.70;99.90
30063;DHT22;16889;67.864;24.990;2024-02-21T10:20:45;-3.70;99.90
30063;DHT22;16889;67.864;24.990;2024-02-21T10:25:31;-3.60;99.90
30063;DHT22;16889;67.864;24.990;2024-02-21T10:30:17;-3.70;99.90
30063;DHT22;16889;67.864;24.990;2024-02-21T10:35:04;-3.50;99.90
30063;DHT22;16889;67.864;24.990;2024-02-21T10:39:50;-3.50;99.90
30063;DHT22;16889;67.864;24.990;2024-02-21T10:44:37;-3.60;99.90
30063;DHT22;16889;67.864;24.990;2024-02-21T10:49:25;-3.60;99.90
30063;DHT22;16889;67.864;24.990;2024-02-21T10:54:27;-3.70;99.90
30063;DHT22;16889;67.864;24.990;2024-02-21T10:59:16;-3.90;99.90
30063;DHT22;16889;67.864;24.990;2024-02-21T11:04:03;-3.90;99.90
30063;DHT22;16889;67.864;24.990;2024-02-21T11:09:09;-3.70;99.90
30063;DHT22;16889;67.864;24.990;2024-02-21T11:14:05;-3.30;99.90
30063;DHT22;16889;67.864;24.990;2024-02-21T11:18:51;-2.90;99.90
30063;DHT22;16889;67.864;24.990;2024-02-21T11:23:37;-2.90;99.90
30063;DHT22;16889;67.864;24.990;2024-02-21T11:28:25;-2.90;99.90
30063;DHT22;16889;67.864;24.990;2024-02-21T11:33:14;-3.10;99.90
30063;DHT22;16889;67.864;24.990;2024-02-21T11:38:12;-3.10;99.90
30063;DHT22;16889;67.864;24.990;2024-02-21T11:43:02;-3.10;99.90
30063;DHT22;16889;67.864;24.990;2024-02-21T11:47:48;-3.10;99.90
30063;DHT22;16889;67.864;24.990;2024-02-21T11:52:34;-2.90;99.90
30063;DHT22;16889;67.864;24.990;2024-02-21T11:57:20;-2.90;99.90
30063;DHT22;16889;67.864;24.990;2024-02-21T12:02:07;-2.80;99.90
30063;DHT22;16889;67.864;24.990;2024-02-21T12:06:53;-2.70;99.90
30063;DHT22;16889;67.864;24.990;2024-02-21T12:11:40;-2.80;99.90
30063;DHT22;16889;67.864;24.990;2024-02-21T12:16:26;-3.20;99.90
30063;DHT22;16889;67.864;24.990;2024-02-21T12:21:12;-3.30;99.90
30063;DHT22;16889;67.864;24.990;2024-02-21T12:25:59;-3.50;99.90
30063;DHT22;16889;67.864;24.990;2024-02-21T12:30:45;-3.60;99.90
30063;DHT22;16889;67.864;24.990;2024-02-21T12:35:31;-3.60;99.90
30063;DHT22;16889;67.864;24.990;2024-02-21T12:40:18;-3.50;99.90
30063;DHT22;16889;67.864;24.990;2024-02-21T12:45:04;-3.30;99.90
30063;DHT22;16889;67.864;24.990;2024-02-21T12:49:50;-3.40;99.90
30063;DHT22;16889;67.864;24.990;2024-02-21T12:54:36;-3.30;99.90
30063;DHT22;16889;67.864;24.990;2024-02-21T12:59:21;-3.30;99.90
30063;DHT22;16889;67.864;24.990;2024-02-21T13:04:07;-3.30;99.90
30063;DHT22;16889;67.864;24.990;2024-02-21T13:08:53;-3.30;99.90
30063;DHT22;16889;67.864;24.990;2024-02-21T13:13:39;-3.10;99.90
30063;DHT22;16889;67.864;24.990;2024-02-21T13:18:24;-3.00;99.90
30063;DHT22;16889;67.864;24.990;2024-02-21T13:23:10;-2.90;99.90
30063;DHT22;16889;67.864;24.990;2024-02-21T13:27:56;-2.80;99.90
30063;DHT22;16889;67.864;24.990;2024-02-21T13:32:42;-2.80;99.90
30063;DHT22;16889;67.864;24.990;2024-02-21T13:37:28;-2.90;99.90
30063;DHT22;16889;67.864;24.990;2024-02-21T13:42:14;-2.90;99.90
30063;DHT22;16889;67.864;24.990;2024-02-21T13:47:00;-3.10;99.90
30063;DHT22;16889;67.864;24.990;2024-02-21T13:51:46;-3.30;99.90
30063;DHT22;16889;67.864;24.990;2024-02-21T13:56:31;-3.30;99.90
30063;DHT22;16889;67.864;24.990;2024-02-21T14:01:17;-3.30;99.90
30063;DHT22;16889;67.864;24.990;2024-02-21T14:06:03;-3.30;99.90
30063;DHT22;16889;67.864;24.990;2024-02-21T14:10:50;-3.30;99.90
30063;DHT22;16889;67.864;24.990;2024-02-21T14:15:36;-3.30;99.90
30063;DHT22;16889;67.864;24.990;2024-02-21T14:20:23;-3.20;99.90
30063;DHT22;16889;67.864;24.990;2024-02-21T14:25:08;-3.20;99.90
30063;DHT22;16889;67.864;24.990;2024-02-21T14:29:54;-3.10;99.90
30063;DHT22;16889;67.864;24.990;2024-02-21T14:34:40;-3.00;99.90
30063;DHT22;16889;67.864;24.990;2024-02-21T14:39:26;-2.90;99.90
30063;DHT22;16889;67.864;24.990;2024-02-21T14:44:12;-2.70;99.90
30063;DHT22;16889;67.864;24.990;2024-02-21T14:48:59;-2.60;99.90
30063;DHT22;16889;67.864;24.990;2024-02-21T14:53:45;-2.60;99.90
30063;DHT22;16889;67.864;24.990;2024-02-21T14:58:32;-2.50;99.90
30063;DHT22;16889;67.864;24.990;2024-02-21T15:03:17;-2.60;99.90
30063;DHT22;16889;67.864;24.990;2024-02-21T15:08:06;-2.70;99.90
30063;DHT22;16889;67.864;24.990;2024-02-21T15:12:53;-2.60;99.90
30063;DHT22;16889;67.864;24.990;2024-02-21T15:17:39;-2.70;99.90
30063;DHT22;16889;67.864;24.990;2024-02-21T15:22:24;-2.70;99.90
30063;DHT22;16889;67.864;24.990;2024-02-21T15:27:10;-2.70;99.90
30063;DHT22;16889;67.864;24.990;2024-02-21T15:31:56;-2.50;99.90
30063;DHT22;16889;67.864;24.990;2024-02-21T15:36:42;-2.50;99.90
30063;DHT22;16889;67.864;24.990;2024-02-21T15:41:28;-2.50;99.90
30063;DHT22;16889;67.864;24.990;2024-02-21T15:46:14;-2.60;99.90
30063;DHT22;16889;67.864;24.990;2024-02-21T15:51:00;-2.50;99.90
30063;DHT22;16889;67.864;24.990;2024-02-21T15:55:45;-2.40;99.90
30063;DHT22;16889;67.864;24.990;2024-02-21T16:00:31;-2.40;99.90
30063;DHT22;16889;67.864;24.990;2024-02-21T16:05:18;-2.50;99.90
30063;DHT22;16889;67.864;24.990;2024-02-21T16:10:04;-2.40;99.90
30063;DHT22;16889;67.864;24.990;2024-02-21T16:14:55;-2.40;99.90
30063;DHT22;16889;67.864;24.990;2024-02-21T16:19:42;-2.40;99.90
30063;DHT22;16889;67.864;24.990;2024-02-21T16:24:28;-2.50;99.90
30063;DHT22;16889;67.864;24.990;2024-02-21T16:29:14;-2.50;99.90
30063;DHT22;16889;67.864;24.990;2024-02-21T16:34:00;-2.50;99.90
30063;DHT22;16889;67.864;24.990;2024-02-21T16:38:45;-2.40;99.90
30063;DHT22;16889;67.864;24.990;2024-02-21T16:43:31;-2.20;99.90
30063;DHT22;16889;67.864;24.990;2024-02-21T16:48:17;-2.20;99.90
30063;DHT22;16889;67.864;24.990;2024-02-21T16:53:04;-2.20;99.90
30063;DHT22;16889;67.864;24.990;2024-02-21T16:57:49;-2.20;99.90
30063;DHT22;16889;67.864;24.990;2024-02-21T17:02:40;-2.10;99.90
30063;DHT22;16889;67.864;24.990;2024-02-21T17:07:29;-2.10;99.90
30063;DHT22;16889;67.864;24.990;2024-02-21T17:12:14;-2.20;99.90
30063;DHT22;16889;67.864;24.990;2024-02-21T17:17:00;-2.00;99.90
30063;DHT22;16889;67.864;24.990;2024-02-21T17:21:46;-1.80;99.90
30063;DHT22;16889;67.864;24.990;2024-02-21T17:26:32;-1.80;99.90
30063;DHT22;16889;67.864;24.990;2024-02-21T17:31:17;-1.90;99.90
30063;DHT22;16889;67.864;24.990;2024-02-21T17:36:03;-1.90;99.90
30063;DHT22;16889;67.864;24.990;2024-02-21T17:40:49;-1.90;99.90
30063;DHT22;16889;67.864;24.990;2024-02-21T17:45:35;-1.90;99.90
30063;DHT22;16889;67.864;24.990;2024-02-21T17:50:21;-1.80;99.90
30063;DHT22;16889;67.864;24.990;2024-02-21T17:55:07;-1.90;99.90
30063;DHT22;16889;67.864;24.990;2024-02-21T17:59:54;-1.80;99.90
30063;DHT22;16889;67.864;24.990;2024-02-21T18:04:40;-1.70;99.90
30063;DHT22;16889;67.864;24.990;2024-02-21T18:09:26;-1.90;99.90
30063;DHT22;16889;67.864;24.990;2024-02-21T18:14:11;-1.80;99.90
30063;DHT22;16889;67.864;24.990;2024-02-21T18:18:57;-1.80;99.90
30063;DHT22;16889;67.864;24.990;2024-02-21T18:23:45;-1.80;99.90
30063;DHT22;16889;67.864;24.990;2024-02-21T18:28:39;-1.90;99.90
30063;DHT22;16889;67.864;24.990;2024-02-21T18:33:25;-1.80;99.90
30063;DHT22;16889;67.864;24.990;2024-02-21T18:38:11;-1.80;99.90
30063;DHT22;16889;67.864;24.990;2024-02-21T18:42:57;-1.80;99.90
30063;DHT22;16889;67.864;24.990;2024-02-21T18:47:46;-1.90;99.90
30063;DHT22;16889;67.864;24.990;2024-02-21T18:52:50;-1.70;99.90
30063;DHT22;16889;67.864;24.990;2024-02-21T18:57:38;-1.70;99.90
30063;DHT22;16889;67.864;24.990;2024-02-21T19:02:24;-1.60;99.90
30063;DHT22;16889;67.864;24.990;2024-02-21T19:07:10;-1.80;99.90
30063;DHT22;16889;67.864;24.990;2024-02-21T19:11:55;-1.70;99.90
30063;DHT22;16889;67.864;24.990;2024-02-21T19:16:41;-1.60;99.90
30063;DHT22;16889;67.864;24.990;2024-02-21T19:21:27;-1.60;99.90
30063;DHT22;16889;67.864;24.990;2024-02-21T19:26:13;-1.70;99.90
30063;DHT22;16889;67.864;24.990;2024-02-21T19:31:01;-1.70;99.90
30063;DHT22;16889;67.864;24.990;2024-02-21T19:35:48;-1.70;99.90
30063;DHT22;16889;67.864;24.990;2024-02-21T19:40:34;-1.70;99.90
30063;DHT22;16889;67.864;24.990;2024-02-21T19:45:20;-1.70;99.90
30063;DHT22;16889;67.864;24.990;2024-02-21T19:50:06;-1.70;99.90
30063;DHT22;16889;67.864;24.990;2024-02-21T19:54:52;-1.70;99.90
30063;DHT22;16889;67.864;24.990;2024-02-21T19:59:39;-1.60;99.90
30063;DHT22;16889;67.864;24.990;2024-02-21T20:04:25;-1.80;99.90
30063;DHT22;16889;67.864;24.990;2024-02-21T20:09:11;-1.70;99.90
30063;DHT22;16889;67.864;24.990;2024-02-21T20:13:57;-1.60;99.90
30063;DHT22;16889;67.864;24.990;2024-02-21T20:18:44;-1.70;99.90
30063;DHT22;16889;67.864;24.990;2024-02-21T20:23:30;-1.70;99.90
30063;DHT22;16889;67.864;24.990;2024-02-21T20:28:16;-1.70;99.90
30063;DHT22;16889;67.864;24.990;2024-02-21T20:33:03;-1.60;99.90
30063;DHT22;16889;67.864;24.990;2024-02-21T20:37:49;-1.60;99.90
30063;DHT22;16889;67.864;24.990;2024-02-21T20:42:35;-1.50;99.90
30063;DHT22;16889;67.864;24.990;2024-02-21T20:47:21;-1.60;99.90
30063;DHT22;16889;67.864;24.990;2024-02-21T20:52:09;-1.50;99.90
30063;DHT22;16889;67.864;24.990;2024-02-21T20:56:54;-1.50;99.90
30063;DHT22;16889;67.864;24.990;2024-02-21T21:01:40;-1.50;99.90
30063;DHT22;16889;67.864;24.990;2024-02-21T21:06:26;-1.70;99.90
30063;DHT22;16889;67.864;24.990;2024-02-21T21:11:12;-1.70;99.90
30063;DHT22;16889;67.864;24.990;2024-02-21T21:15:58;-1.60;99.90
30063;DHT22;16889;67.864;24.990;2024-02-21T21:20:43;-1.60;99.90
30063;DHT22;16889;67.864;24.990;2024-02-21T21:25:29;-1.50;99.90
30063;DHT22;16889;67.864;24.990;2024-02-21T21:30:15;-1.50;99.90
30063;DHT22;16889;67.864;24.990;2024-02-21T21:35:01;-1.50;99.90
30063;DHT22;16889;67.864;24.990;2024-02-21T21:39:47;-1.40;99.90
30063;DHT22;16889;67.864;24.990;2024-02-21T21:44:39;-1.40;99.90
30063;DHT22;16889;67.864;24.990;2024-02-21T21:49:25;-1.30;99.90
30063;DHT22;16889;67.864;24.990;2024-02-21T21:54:12;-1.50;99.90
30063;DHT22;16889;67.864;24.990;2024-02-21T21:58:58;-1.50;99.90
30063;DHT22;16889;67.864;24.990;2024-02-21T22:03:44;-1.70;99.90
30063;DHT22;16889;67.864;24.990;2024-02-21T22:08:30;-1.60;99.90
30063;DHT22;16889;67.864;24.990;2024-02-21T22:13:15;-1.70;99.90
30063;DHT22;16889;67.864;24.990;2024-02-21T22:18:01;-1.80;99.90
30063;DHT22;16889;67.864;24.990;2024-02-21T22:22:47;-1.80;99.90
30063;DHT22;16889;67.864;24.990;2024-02-21T22:27:32;-1.70;99.90
30063;DHT22;16889;67.864;24.990;2024-02-21T22:32:18;-1.70;99.90
30063;DHT22;16889;67.864;24.990;2024-02-21T22:37:04;-1.80;99.90
30063;DHT22;16889;67.864;24.990;2024-02-21T22:41:50;-1.70;99.90
30063;DHT22;16889;67.864;24.990;2024-02-21T22:46:36;-1.60;99.90
30063;DHT22;16889;67.864;24.990;2024-02-21T22:51:23;-1.60;99.90
30063;DHT22;16889;67.864;24.990;2024-02-21T22:56:09;-1.50;99.90
30063;DHT22;16889;67.864;24.990;2024-02-21T23:00:56;-1.50;99.90
30063;DHT22;16889;67.864;24.990;2024-02-21T23:05:42;-1.50;99.90
30063;DHT22;16889;67.864;24.990;2024-02-21T23:10:27;-1.50;99.90
30063;DHT22;16889;67.864;24.990;2024-02-21T23:15:14;-1.40;99.90
30063;DHT22;16889;67.864;24.990;2024-02-21T23:20:00;-1.40;99.90
30063;DHT22;16889;67.864;24.990;2024-02-21T23:24:45;-1.40;99.90
30063;DHT22;16889;67.864;24.990;2024-02-21T23:29:31;-1.40;99.90
30063;DHT22;16889;67.864;24.990;2024-02-21T23:34:17;-1.30;99.90
30063;DHT22;16889;67.864;24.990;2024-02-21T23:39:03;-1.40;99.90
30063;DHT22;16889;67.864;24.990;2024-02-21T23:43:50;-1.50;99.90
30063;DHT22;16889;67.864;24.990;2024-02-21T23:48:37;-1.60;99.90
30063;DHT22;16889;67.864;24.990;2024-02-21T23:53:23;-1.70;99.90
30063;DHT22;16889;67.864;24.990;2024-02-21T23:58:09;-1.80;99.90
